createdAt,value
2023-02-09T00:00:32.767Z,101701.56
2023-02-09T00:03:01.246Z,101689.34
2023-02-09T00:05:29.626Z,101693.72
2023-02-09T00:07:58.174Z,101682.41
2023-02-09T00:10:26.768Z,101688.31
2023-02-09T00:13:14.207Z,101686.50
2023-02-09T00:15:50.327Z,101685.56
2023-02-09T00:18:19.123Z,101686.16
2023-02-09T00:20:47.939Z,101684.34
2023-02-09T00:23:16.774Z,101684.34
2023-02-09T00:25:45.176Z,101677.47
2023-02-09T00:28:14.986Z,101675.47
2023-02-09T00:30:43.835Z,101680.75
2023-02-09T00:33:12.662Z,101673.53
2023-02-09T00:35:42.360Z,101671.84
2023-02-09T00:38:11.897Z,101678.66
2023-02-09T00:40:41.863Z,101675.94
2023-02-09T00:43:11.821Z,101670.66
2023-02-09T00:45:41.803Z,101668.09
2023-02-09T00:48:10.300Z,101660.13
2023-02-09T00:50:38.716Z,101664.19
2023-02-09T00:53:07.200Z,101661.34
2023-02-09T00:55:35.591Z,101652.75
2023-02-09T00:58:04.213Z,101651.84
2023-02-09T01:00:32.914Z,101659.53
2023-02-09T01:03:03.498Z,101649.13
2023-02-09T01:05:32.558Z,101656.66
2023-02-09T01:08:03.129Z,101659.22
2023-02-09T01:10:32.166Z,101669.47
2023-02-09T01:13:00.687Z,101662.53
2023-02-09T01:15:30.973Z,101661.50
2023-02-09T01:18:00.473Z,101651.25
2023-02-09T01:20:30.240Z,101662.25
2023-02-09T01:22:58.595Z,101656.06
2023-02-09T01:25:27.032Z,101649.91
2023-02-09T01:27:55.530Z,101637.69
2023-02-09T01:30:25.894Z,101643.44
2023-02-09T01:32:56.581Z,101637.09
2023-02-09T01:35:25.004Z,101634.38
2023-02-09T01:37:54.894Z,101640.25
2023-02-09T01:40:23.718Z,101634.06
2023-02-09T01:42:52.111Z,101635.44
2023-02-09T01:45:35.522Z,101647.34
2023-02-09T01:48:05.242Z,101631.66
2023-02-09T01:50:38.529Z,101641.00
2023-02-09T01:53:09.382Z,101635.59
2023-02-09T01:55:42.533Z,101638.16
2023-02-09T01:58:17.143Z,101623.38
2023-02-09T02:00:46.982Z,101634.34
2023-02-09T02:03:19.951Z,101640.38
2023-02-09T02:05:53.610Z,101627.47
2023-02-09T02:08:28.755Z,101617.22
2023-02-09T02:10:58.961Z,101628.22
2023-02-09T02:13:27.689Z,101611.03
2023-02-09T02:16:04.467Z,101617.22
2023-02-09T02:18:53.191Z,101613.59
2023-02-09T02:21:59.270Z,101621.28
2023-02-09T02:25:15.592Z,101609.97
2023-02-09T02:27:50.403Z,101608.19
2023-02-09T02:30:51.886Z,101620.06
2023-02-09T02:33:34.963Z,101616.47
2023-02-09T02:36:10.365Z,101610.44
2023-02-09T02:38:46.155Z,101616.28
2023-02-09T02:41:20.453Z,101612.09
2023-02-09T02:43:58.739Z,101616.28
2023-02-09T02:46:34.635Z,101622.94
2023-02-09T02:49:10.130Z,101618.41
2023-02-09T02:51:41.434Z,101620.50
2023-02-09T02:54:15.381Z,101618.69
2023-02-09T02:56:49.893Z,101617.78
2023-02-09T02:59:23.523Z,101622.75
2023-02-09T03:01:59.864Z,101618.41
2023-02-09T03:04:31.946Z,101616.59
2023-02-09T03:07:00.532Z,101613.28
2023-02-09T03:09:29.034Z,101615.06
2023-02-09T03:12:05.573Z,101616.88
2023-02-09T03:20:44.388Z,101623.19
2023-02-09T03:23:24.898Z,101606.03
2023-02-09T03:25:57.404Z,101609.34
2023-02-09T03:28:30.380Z,101606.03
2023-02-09T03:31:00.193Z,101606.78
2023-02-09T03:33:31.670Z,101612.69
2023-02-09T03:36:04.590Z,101620.34
2023-02-09T03:38:33.212Z,101611.63
2023-02-09T03:41:01.945Z,101607.25
2023-02-09T03:43:44.253Z,101605.44
2023-02-09T03:46:13.619Z,101607.97
2023-02-09T03:48:42.040Z,101605.44
2023-02-09T03:51:13.101Z,101595.19
2023-02-09T03:53:42.098Z,101595.94
2023-02-09T03:56:10.582Z,101591.59
2023-02-09T03:58:39.471Z,101589.78
2023-02-09T04:01:10.879Z,101591.28
2023-02-09T04:03:40.866Z,101591.56
2023-02-09T04:06:11.741Z,101587.81
2023-02-09T04:08:40.736Z,101590.97
2023-02-09T04:11:09.983Z,101583.16
2023-02-09T04:13:38.539Z,101578.91
2023-02-09T04:16:08.149Z,101586.47
2023-02-09T04:18:37.043Z,101584.66
2023-02-09T04:21:06.952Z,101584.66
2023-02-09T04:23:37.652Z,101577.88
2023-02-09T04:26:06.753Z,101575.31
2023-02-09T04:28:35.218Z,101575.50
2023-02-09T04:31:03.803Z,101562.38
2023-02-09T04:33:32.295Z,101565.69
2023-02-09T04:36:01.063Z,101560.41
2023-02-09T04:38:30.269Z,101562.84
2023-02-09T04:41:02.712Z,101555.00
2023-02-09T04:43:31.868Z,101557.56
2023-02-09T04:46:01.342Z,101557.56
2023-02-09T04:48:30.820Z,101555.91
2023-02-09T04:50:59.328Z,101558.47
2023-02-09T04:53:29.518Z,101548.97
2023-02-09T04:55:59.369Z,101546.44
2023-02-09T04:58:45.518Z,101545.34
2023-02-09T05:01:20.225Z,101548.53
2023-02-09T05:03:48.884Z,101548.06
2023-02-09T05:06:18.014Z,101557.41
2023-02-09T05:08:47.430Z,101551.22
2023-02-09T05:11:17.578Z,101551.81
2023-02-09T05:13:46.502Z,101554.22
2023-02-09T05:16:18.687Z,101554.22
2023-02-09T05:18:47.556Z,101554.22
2023-02-09T05:21:15.920Z,101549.84
2023-02-09T05:23:44.499Z,101540.38
2023-02-09T05:26:12.967Z,101540.38
2023-02-09T05:28:43.240Z,101538.72
2023-02-09T05:31:11.689Z,101539.47
2023-02-09T05:33:40.506Z,101545.47
2023-02-09T05:36:12.738Z,101547.88
2023-02-09T05:38:41.944Z,101554.81
2023-02-09T05:41:34.499Z,101560.06
2023-02-09T05:44:05.027Z,101556.63
2023-02-09T05:46:33.649Z,101559.16
2023-02-09T05:49:02.115Z,101556.63
2023-02-09T05:51:30.552Z,101560.81
2023-02-09T05:53:59.219Z,101542.19
2023-02-09T05:56:27.728Z,101540.38
2023-02-09T05:58:56.139Z,101548.94
2023-02-09T06:01:26.500Z,101541.28
2023-02-09T06:03:55.101Z,101534.97
2023-02-09T06:06:23.680Z,101534.78
2023-02-09T06:08:52.153Z,101534.78
2023-02-09T06:11:20.485Z,101537.78
2023-02-09T06:13:49.426Z,101542.56
2023-02-09T06:16:17.755Z,101545.13
2023-02-09T06:18:47.972Z,101548.41
2023-02-09T06:21:16.584Z,101543.91
2023-02-09T06:23:47.135Z,101550.69
2023-02-09T06:26:18.392Z,101533.53
2023-02-09T06:28:47.123Z,101541.03
2023-02-09T06:31:15.675Z,101552.59
2023-02-09T06:33:44.124Z,101559.19
2023-02-09T06:36:14.096Z,101573.06
2023-02-09T06:38:42.533Z,101561.19
2023-02-09T06:41:11.200Z,101565.53
2023-02-09T06:43:39.619Z,101573.97
2023-02-09T06:46:09.691Z,101581.03
2023-02-09T06:48:38.432Z,101583.59
2023-02-09T06:51:10.041Z,101589.59
2023-02-09T06:53:41.301Z,101581.78
2023-02-09T06:56:11.548Z,101585.81
2023-02-09T06:58:41.312Z,101594.22
2023-02-09T07:01:12.794Z,101599.03
2023-02-09T07:03:41.291Z,101608.53
2023-02-09T07:06:13.990Z,101598.31
2023-02-09T07:08:45.568Z,101609.41
2023-02-09T07:11:17.518Z,101612.84
2023-02-09T07:13:46.670Z,101603.53
2023-02-09T07:16:16.635Z,101602.06
2023-02-09T07:18:45.431Z,101597.25
2023-02-09T07:21:18.904Z,101593.03
2023-02-09T07:23:49.586Z,101602.22
2023-02-09T07:26:19.606Z,101607.34
2023-02-09T07:28:48.007Z,101611.72
2023-02-09T07:31:18.723Z,101604.19
2023-02-09T07:33:47.914Z,101594.84
2023-02-09T07:36:17.880Z,101595.75
2023-02-09T07:38:48.312Z,101586.44
2023-02-09T07:41:21.320Z,101583.16
2023-02-09T07:43:50.627Z,101589.75
2023-02-09T07:46:22.442Z,101584.47
2023-02-09T07:48:51.381Z,101593.03
2023-02-09T07:51:25.370Z,101580.44
2023-02-09T07:53:56.083Z,101586.44
2023-02-09T07:56:25.371Z,101592.63
2023-02-09T07:58:54.477Z,101595.94
2023-02-09T08:01:23.316Z,101604.63
2023-02-09T08:03:52.615Z,101598.03
2023-02-09T08:06:40.686Z,101602.41
2023-02-09T08:09:14.307Z,101596.56
2023-02-09T08:11:48.639Z,101599.13
2023-02-09T08:14:23.587Z,101591.44
2023-02-09T08:17:15.889Z,101588.16
2023-02-09T08:19:45.421Z,101588.16
2023-02-09T08:22:14.061Z,101589.19
2023-02-09T08:24:44.515Z,101583.66
2023-02-09T08:27:12.930Z,101594.78
2023-02-09T08:29:41.558Z,101597.69
2023-02-09T08:32:10.269Z,101603.88
2023-02-09T08:34:38.948Z,101614.38
2023-02-09T08:37:08.725Z,101621.31
2023-02-09T08:39:37.544Z,101624.91
2023-02-09T08:42:07.574Z,101626.13
2023-02-09T08:44:36.167Z,101621.94
2023-02-09T08:47:05.438Z,101632.44
2023-02-09T08:49:33.909Z,101633.34
2023-02-09T08:52:02.787Z,101642.09
2023-02-09T08:54:31.564Z,101638.78
2023-02-09T08:57:00.117Z,101640.00
2023-02-09T08:59:30.301Z,101632.78
2023-02-09T09:01:58.854Z,101637.91
2023-02-09T09:04:28.096Z,101642.56
2023-02-09T09:06:56.843Z,101645.59
2023-02-09T09:09:25.631Z,101643.34
2023-02-09T09:11:54.132Z,101637.66
2023-02-09T09:14:22.685Z,101651.78
2023-02-09T09:16:52.664Z,101648.78
2023-02-09T09:19:21.576Z,101647.28
2023-02-09T09:21:50.033Z,101651.78
2023-02-09T09:24:18.532Z,101654.53
2023-02-09T09:26:46.876Z,101651.38
2023-02-09T09:29:15.309Z,101656.94
2023-02-09T09:31:43.790Z,101653.19
2023-02-09T09:34:13.597Z,101661.94
2023-02-09T09:36:42.274Z,101675.75
2023-02-09T09:39:10.779Z,101663.13
2023-02-09T09:41:39.832Z,101660.72
2023-02-09T09:44:15.652Z,101659.53
2023-02-09T09:46:48.942Z,101666.47
2023-02-09T09:49:26.057Z,101669.31
2023-02-09T09:51:59.512Z,101662.69
2023-02-09T09:54:32.918Z,101657.13
2023-02-09T09:57:02.370Z,101661.50
2023-02-09T09:59:38.620Z,101666.16
2023-02-09T10:02:20.391Z,101665.56
2023-02-09T10:04:51.401Z,101654.69
2023-02-09T10:07:23.887Z,101659.06
2023-02-09T10:09:57.800Z,101657.59
2023-02-09T10:12:37.974Z,101649.13
2023-02-09T10:15:28.258Z,101653.81
2023-02-09T10:17:57.631Z,101659.97
2023-02-09T10:20:47.998Z,101659.38
2023-02-09T10:23:24.385Z,101660.44
2023-02-09T10:26:06.284Z,101634.97
2023-02-09T10:28:40.587Z,101630.00
2023-02-09T10:31:13.700Z,101650.81
2023-02-09T10:33:46.072Z,101643.56
2023-02-09T10:36:36.725Z,101636.78
2023-02-09T10:39:17.946Z,101630.28
2023-02-09T10:41:49.884Z,101622.88
2023-02-09T10:44:23.939Z,101631.63
2023-02-09T10:47:11.972Z,101631.16
2023-02-09T10:49:40.944Z,101631.31
2023-02-09T10:52:18.352Z,101627.41
2023-02-09T10:54:51.487Z,101626.03
2023-02-09T10:57:27.826Z,101620.44
2023-02-09T10:59:59.914Z,101613.97
2023-02-09T11:02:39.065Z,101627.97
2023-02-09T11:05:33.493Z,101625.69
2023-02-09T11:08:18.984Z,101621.03
2023-02-09T11:11:02.470Z,101606.69
2023-02-09T11:13:32.469Z,101612.84
2023-02-09T11:16:48.614Z,101620.97
2023-02-09T11:19:34.957Z,101608.47
2023-02-09T11:22:08.853Z,101613.72
2023-02-09T11:24:55.885Z,101608.19
2023-02-09T11:27:43.077Z,101604.25
2023-02-09T11:30:31.461Z,101586.44
2023-02-09T11:33:12.488Z,101592.91
2023-02-09T11:35:53.022Z,101598.31
2023-02-09T11:38:35.710Z,101605.56
2023-02-09T11:41:31.681Z,101612.75
2023-02-09T11:44:03.708Z,101601.00
2023-02-09T11:46:34.811Z,101604.00
2023-02-09T11:49:09.376Z,101593.25
2023-02-09T11:51:43.303Z,101595.31
2023-02-09T11:54:17.777Z,101582.06
2023-02-09T11:56:51.908Z,101568.59
2023-02-09T11:59:27.542Z,101575.78
2023-02-09T12:02:06.040Z,101564.94
2023-02-09T12:04:43.609Z,101561.88
2023-02-09T12:07:22.239Z,101555.38
2023-02-09T12:09:57.182Z,101564.09
2023-02-09T12:12:33.165Z,101556.69
2023-02-09T12:15:13.199Z,101557.13
2023-02-09T12:17:47.943Z,101571.75
2023-02-09T12:20:30.666Z,101572.03
2023-02-09T12:23:08.166Z,101577.47
2023-02-09T12:25:55.564Z,101576.06
2023-02-09T12:28:46.009Z,101559.91
2023-02-09T12:31:22.165Z,101573.78
2023-02-09T12:34:24.061Z,101567.09
2023-02-09T12:37:27.420Z,101561.97
2023-02-09T12:40:25.094Z,101573.44
2023-02-09T12:43:14.688Z,101550.34
2023-02-09T12:45:46.443Z,101553.03
2023-02-09T12:48:19.588Z,101559.34
2023-02-09T12:50:54.957Z,101558.72
2023-02-09T12:53:56.052Z,101562.34
2023-02-09T12:56:33.484Z,101564.91
2023-02-09T12:59:21.802Z,101565.47
2023-02-09T13:02:15.988Z,101556.09
2023-02-09T13:05:02.851Z,101555.44
2023-02-09T13:07:53.546Z,101564.19
2023-02-09T13:10:27.222Z,101572.16
2023-02-09T13:13:07.838Z,101569.13
2023-02-09T13:15:48.945Z,101559.28
2023-02-09T13:18:26.195Z,101563.91
2023-02-09T13:21:15.278Z,101551.22
2023-02-09T13:23:56.542Z,101552.50
2023-02-09T13:26:27.330Z,101546.63
2023-02-09T13:29:19.852Z,101552.16
2023-02-09T13:32:03.100Z,101547.31
2023-02-09T13:34:37.235Z,101536.38
2023-02-09T13:37:22.924Z,101541.81
2023-02-09T13:40:00.752Z,101554.91
2023-02-09T13:42:33.401Z,101549.91
2023-02-09T13:45:01.991Z,101556.06
2023-02-09T13:47:30.913Z,101560.59
2023-02-09T13:50:04.657Z,101547.19
2023-02-09T13:52:39.291Z,101544.72
2023-02-09T13:55:16.671Z,101542.16
2023-02-09T13:57:47.601Z,101550.00
2023-02-09T14:00:27.298Z,101552.72
2023-02-09T14:03:02.260Z,101547.56
2023-02-09T14:05:41.989Z,101545.91
2023-02-09T14:08:14.121Z,101558.84
2023-02-09T14:10:45.592Z,101553.72
2023-02-09T14:13:22.290Z,101554.00
2023-02-09T14:16:08.984Z,101561.56
2023-02-09T14:18:48.555Z,101558.84
2023-02-09T14:21:32.609Z,101560.53
2023-02-09T14:24:23.043Z,101559.66
2023-02-09T14:26:55.473Z,101569.94
2023-02-09T14:29:27.406Z,101564.00
2023-02-09T14:31:58.121Z,101567.47
2023-02-09T14:34:37.377Z,101565.66
2023-02-09T14:37:34.233Z,101569.13
2023-02-09T14:40:22.486Z,101569.94
2023-02-09T14:43:00.876Z,101568.88
2023-02-09T14:45:38.367Z,101568.88
2023-02-09T14:48:21.764Z,101570.41
2023-02-09T14:50:52.570Z,101573.72
2023-02-09T14:53:25.273Z,101571.31
2023-02-09T14:55:55.879Z,101563.47
2023-02-09T14:58:26.994Z,101572.06
2023-02-09T15:00:57.639Z,101568.59
2023-02-09T15:03:26.831Z,101570.13
2023-02-09T15:05:59.556Z,101572.69
2023-02-09T15:08:35.925Z,101570.13
2023-02-09T15:11:28.211Z,101576.78
2023-02-09T15:14:01.526Z,101569.81
2023-02-09T15:16:30.333Z,101573.16
2023-02-09T15:18:59.443Z,101578.28
2023-02-09T15:21:27.946Z,101588.56
2023-02-09T15:23:58.183Z,101582.56
2023-02-09T15:26:27.831Z,101590.38
2023-02-09T15:28:56.310Z,101586.00
2023-02-09T15:31:24.822Z,101580.75
2023-02-09T15:33:53.262Z,101579.84
2023-02-09T15:36:22.992Z,101583.19
2023-02-09T15:38:51.934Z,101590.75
2023-02-09T15:41:39.074Z,101583.69
2023-02-09T15:44:35.296Z,101584.28
2023-02-09T15:47:21.345Z,101574.66
2023-02-09T15:49:49.803Z,101584.78
2023-02-09T15:52:20.245Z,101591.84
2023-02-09T15:54:52.619Z,101587.50
2023-02-09T15:57:25.168Z,101592.66
2023-02-09T15:59:53.737Z,101595.06
2023-02-09T16:02:22.377Z,101601.88
2023-02-09T16:04:50.891Z,101603.53
2023-02-09T16:07:25.817Z,101611.25
2023-02-09T16:09:54.277Z,101612.91
2023-02-09T16:12:24.343Z,101618.03
2023-02-09T16:14:53.501Z,101621.38
2023-02-09T16:17:22.136Z,101636.78
2023-02-09T16:19:51.278Z,101630.75
2023-02-09T16:22:23.710Z,101635.88
2023-02-09T16:24:52.433Z,101646.03
2023-02-09T16:27:28.564Z,101651.03
2023-02-09T16:29:58.233Z,101656.03
2023-02-09T16:32:28.745Z,101660.13
2023-02-09T16:35:10.756Z,101664.38
2023-02-09T16:37:47.029Z,101660.00
2023-02-09T16:40:27.371Z,101670.13
2023-02-09T16:42:59.141Z,101677.81
2023-02-09T16:45:31.138Z,101673.31
2023-02-09T16:48:00.102Z,101674.84
2023-02-09T16:50:32.980Z,101672.28
2023-02-09T16:53:04.285Z,101675.34
2023-02-09T16:55:35.500Z,101702.53
2023-02-09T16:58:07.061Z,101698.13
2023-02-09T17:00:38.838Z,101708.25
2023-02-09T17:03:15.786Z,101715.84
2023-02-09T17:05:47.998Z,101715.56
2023-02-09T17:08:19.891Z,101721.44
2023-02-09T17:10:52.063Z,101721.31
2023-02-09T17:13:22.307Z,101721.03
2023-02-09T17:15:55.020Z,101726.16
2023-02-09T17:18:27.341Z,101727.69
2023-02-09T17:20:58.764Z,101726.63
2023-02-09T17:23:31.598Z,101719.69
2023-02-09T17:26:00.872Z,101719.53
2023-02-09T17:28:31.632Z,101731.47
2023-02-09T17:31:03.477Z,101722.75
2023-02-09T17:33:35.295Z,101729.53
2023-02-09T17:36:25.236Z,101725.00
2023-02-09T17:38:53.648Z,101734.25
2023-02-09T17:41:31.664Z,101739.41
2023-02-09T17:44:24.144Z,101738.19
2023-02-09T17:47:03.445Z,101741.38
2023-02-09T17:49:32.255Z,101730.81
2023-02-09T17:52:01.265Z,101738.38
2023-02-09T17:54:30.048Z,101739.16
2023-02-09T17:56:58.487Z,101744.13
2023-02-09T17:59:28.841Z,101745.94
2023-02-09T18:01:58.847Z,101747.44
2023-02-09T18:04:28.724Z,101731.88
2023-02-09T18:06:58.237Z,101743.84
2023-02-09T18:09:26.967Z,101747.00
2023-02-09T18:12:02.514Z,101747.91
2023-02-09T18:14:35.206Z,101747.91
2023-02-09T18:17:04.072Z,101754.72
2023-02-09T18:19:32.969Z,101752.00
2023-02-09T18:22:03.790Z,101751.41
2023-02-09T18:24:35.641Z,101753.81
2023-02-09T18:27:04.817Z,101747.78
2023-02-09T18:29:34.772Z,101749.59
2023-02-09T18:32:04.431Z,101758.94
2023-02-09T18:34:34.102Z,101757.00
2023-02-09T18:37:02.787Z,101764.97
2023-02-09T18:39:31.694Z,101760.75
2023-02-09T18:42:00.373Z,101761.50
2023-02-09T18:44:31.267Z,101771.03
2023-02-09T18:47:01.952Z,101777.06
2023-02-09T18:49:30.974Z,101777.22
2023-02-09T18:51:59.596Z,101779.16
2023-02-09T18:54:29.216Z,101786.84
2023-02-09T18:56:58.386Z,101787.91
2023-02-09T18:59:30.430Z,101791.50
2023-02-09T19:02:00.854Z,101792.56
2023-02-09T19:04:29.434Z,101793.31
2023-02-09T19:06:58.176Z,101795.88
2023-02-09T19:09:26.632Z,101801.91
2023-02-09T19:11:55.362Z,101805.41
2023-02-09T19:14:39.164Z,101811.72
2023-02-09T19:17:15.150Z,101805.66
2023-02-09T19:19:44.643Z,101810.22
2023-02-09T19:22:16.637Z,101797.38
2023-02-09T19:24:45.851Z,101803.56
2023-02-09T19:27:16.864Z,101808.69
2023-02-09T19:29:46.506Z,101808.69
2023-02-09T19:32:16.854Z,101809.59
2023-02-09T19:34:46.257Z,101820.78
2023-02-09T19:37:16.410Z,101817.44
2023-02-09T19:39:52.915Z,101818.34
2023-02-09T19:42:22.097Z,101829.50
2023-02-09T19:44:50.919Z,101825.28
2023-02-09T19:47:25.954Z,101825.28
2023-02-09T19:49:55.230Z,101821.06
2023-02-09T19:52:24.443Z,101820.00
2023-02-09T19:54:53.837Z,101822.88
2023-02-09T19:57:24.829Z,101830.72
2023-02-09T19:59:54.881Z,101828.16
2023-02-09T20:02:24.777Z,101829.81
2023-02-09T20:04:53.441Z,101831.59
2023-02-09T20:07:21.852Z,101826.47
2023-02-09T20:09:52.448Z,101826.47
2023-02-09T20:12:22.151Z,101828.16
2023-02-09T20:14:51.171Z,101830.72
2023-02-09T20:17:20.276Z,101840.09
2023-02-09T20:19:50.303Z,101838.44
2023-02-09T20:22:19.001Z,101832.38
2023-02-09T20:24:47.700Z,101847.91
2023-02-09T20:27:16.074Z,101849.56
2023-02-09T20:29:44.371Z,101855.75
2023-02-09T20:32:12.895Z,101853.94
2023-02-09T20:34:41.534Z,101855.75
2023-02-09T20:37:12.036Z,101853.34
2023-02-09T20:39:40.605Z,101849.72
2023-02-09T20:42:26.803Z,101852.44
2023-02-09T20:45:12.889Z,101859.09
2023-02-09T20:47:41.910Z,101857.16
2023-02-09T20:50:10.989Z,101855.50
2023-02-09T20:52:40.824Z,101851.09
2023-02-09T20:55:09.421Z,101852.13
2023-02-09T20:57:38.497Z,101852.13
2023-02-09T21:00:09.655Z,101859.09
2023-02-09T21:02:39.497Z,101864.22
2023-02-09T21:05:08.485Z,101855.50
2023-02-09T21:07:36.990Z,101858.81
2023-02-09T21:10:07.449Z,101855.34
2023-02-09T21:12:35.921Z,101857.75
2023-02-09T21:15:04.744Z,101857.00
2023-02-09T21:17:33.204Z,101856.09
2023-02-09T21:20:01.605Z,101847.47
2023-02-09T21:22:30.114Z,101844.16
2023-02-09T21:24:58.542Z,101839.78
2023-02-09T21:27:28.334Z,101835.56
2023-02-09T21:29:57.172Z,101837.97
2023-02-09T21:32:25.756Z,101837.97
2023-02-09T21:34:54.167Z,101855.19
2023-02-09T21:37:22.842Z,101844.00
2023-02-09T21:39:51.299Z,101848.22
2023-02-09T21:42:30.587Z,101843.09
2023-02-09T21:45:00.920Z,101843.09
2023-02-09T21:47:32.270Z,101843.09
2023-02-09T21:50:01.965Z,101849.13
2023-02-09T21:52:31.531Z,101842.19
2023-02-09T21:54:59.839Z,101841.44
2023-02-09T21:57:29.461Z,101841.59
2023-02-09T22:00:04.450Z,101837.22
2023-02-09T22:02:33.500Z,101838.28
2023-02-09T22:05:02.068Z,101834.94
2023-02-09T22:07:30.484Z,101840.09
2023-02-09T22:09:59.225Z,101834.94
2023-02-09T22:12:27.824Z,101838.44
2023-02-09T22:14:56.561Z,101837.66
2023-02-09T22:17:26.364Z,101828.16
2023-02-09T22:19:54.827Z,101839.47
2023-02-09T22:22:23.674Z,101838.56
2023-02-09T22:24:52.151Z,101845.22
2023-02-09T22:27:20.522Z,101841.88
2023-02-09T22:29:48.879Z,101842.66
2023-02-09T22:32:17.949Z,101845.22
2023-02-09T22:34:48.117Z,101845.22
2023-02-09T22:37:16.601Z,101850.19
2023-02-09T22:39:46.486Z,101849.44
2023-02-09T22:42:14.931Z,101860.63
2023-02-09T22:44:43.475Z,101854.84
2023-02-09T22:47:11.971Z,101858.34
2023-02-09T22:49:40.430Z,101855.75
2023-02-09T22:52:10.455Z,101861.22
2023-02-09T22:54:39.018Z,101862.72
2023-02-09T22:57:07.413Z,101864.22
2023-02-09T22:59:36.280Z,101870.28
2023-02-09T23:02:05.382Z,101871.94
2023-02-09T23:04:33.830Z,101860.00
2023-02-09T23:07:03.991Z,101863.63
2023-02-09T23:09:34.284Z,101862.88
2023-02-09T23:12:02.993Z,101864.66
2023-02-09T23:14:31.497Z,101866.34
2023-02-09T23:17:00.518Z,101872.34
2023-02-09T23:19:28.895Z,101864.81
2023-02-09T23:21:57.585Z,101869.78
2023-02-09T23:24:26.292Z,101863.00
2023-02-09T23:26:56.246Z,101866.34
2023-02-09T23:29:24.630Z,101881.75
2023-02-09T23:31:53.206Z,101882.78
2023-02-09T23:34:23.767Z,101887.00
2023-02-09T23:36:52.636Z,101880.06
2023-02-09T23:39:23.501Z,101896.25
2023-02-09T23:41:52.019Z,101894.44
2023-02-09T23:44:21.891Z,101898.66
2023-02-09T23:46:50.341Z,101898.66
2023-02-09T23:49:18.754Z,101903.06
2023-02-09T23:51:47.609Z,101916.78
2023-02-09T23:54:16.213Z,101920.28
2023-02-09T23:56:46.559Z,101915.88
2023-02-09T23:59:17.072Z,101917.69
